createdAt,value
2024-02-02T00:01:52.725Z,5.70
2024-02-02T00:04:20.819Z,5.69
2024-02-02T00:06:49.420Z,5.68
2024-02-02T00:09:17.745Z,5.67
2024-02-02T00:11:45.812Z,5.67
2024-02-02T00:14:13.992Z,5.64
2024-02-02T00:16:42.057Z,5.60
2024-02-02T00:19:10.234Z,5.58
2024-02-02T00:21:38.319Z,5.57
2024-02-02T00:24:06.319Z,5.56
2024-02-02T00:26:34.401Z,5.56
2024-02-02T00:29:02.626Z,5.55
2024-02-02T00:31:30.686Z,5.53
2024-02-02T00:33:58.926Z,5.54
2024-02-02T00:36:27.187Z,5.55
2024-02-02T00:38:55.379Z,5.57
2024-02-02T00:41:23.481Z,5.59
2024-02-02T00:43:51.785Z,5.59
2024-02-02T00:46:19.932Z,5.60
2024-02-02T00:48:48.100Z,5.61
2024-02-02T00:51:16.335Z,5.62
2024-02-02T00:53:44.333Z,5.63
2024-02-02T00:56:12.563Z,5.64
2024-02-02T00:58:40.722Z,5.64
2024-02-02T01:01:09.216Z,5.62
2024-02-02T01:03:38.934Z,5.64
2024-02-02T01:06:07.790Z,5.65
2024-02-02T01:08:36.035Z,5.68
2024-02-02T01:11:04.596Z,5.71
2024-02-02T01:13:32.697Z,5.72
2024-02-02T01:16:00.958Z,5.71
2024-02-02T01:18:29.186Z,5.69
2024-02-02T01:20:57.386Z,5.72
2024-02-02T01:23:25.892Z,5.73
2024-02-02T01:25:54.058Z,5.74
2024-02-02T01:28:22.129Z,5.74
2024-02-02T01:30:50.203Z,5.73
2024-02-02T01:33:18.667Z,5.73
2024-02-02T01:35:46.872Z,5.73
2024-02-02T01:38:15.206Z,5.73
2024-02-02T01:40:43.292Z,5.71
2024-02-02T01:43:11.358Z,5.72
2024-02-02T01:45:39.435Z,5.71
2024-02-02T01:48:10.707Z,5.71
2024-02-02T01:50:38.984Z,5.71
2024-02-02T01:53:07.137Z,5.71
2024-02-02T01:55:35.657Z,5.73
2024-02-02T01:58:03.886Z,5.75
2024-02-02T02:00:32.140Z,5.77
2024-02-02T02:03:00.551Z,5.75
2024-02-02T02:05:29.782Z,5.73
2024-02-02T02:07:57.893Z,5.72
2024-02-02T02:10:26.714Z,5.72
2024-02-02T02:12:55.133Z,5.69
2024-02-02T02:15:25.061Z,5.68
2024-02-02T02:17:53.686Z,5.66
2024-02-02T02:20:23.914Z,5.63
2024-02-02T02:22:52.465Z,5.61
2024-02-02T02:25:21.153Z,5.59
2024-02-02T02:27:49.593Z,5.58
2024-02-02T02:30:17.647Z,5.56
2024-02-02T02:32:45.852Z,5.55
2024-02-02T02:35:14.040Z,5.55
2024-02-02T02:37:42.079Z,5.54
2024-02-02T02:40:10.904Z,5.54
2024-02-02T02:42:39.161Z,5.54
2024-02-02T02:45:07.886Z,5.53
2024-02-02T02:47:36.192Z,5.51
2024-02-02T02:50:05.530Z,5.51
2024-02-02T02:52:33.590Z,5.55
2024-02-02T02:55:01.549Z,5.57
2024-02-02T02:57:29.653Z,5.57
2024-02-02T02:59:57.840Z,5.57
2024-02-02T03:02:25.900Z,5.57
2024-02-02T03:04:53.974Z,5.55
2024-02-02T03:07:22.058Z,5.55
2024-02-02T03:09:50.224Z,5.53
2024-02-02T03:12:18.388Z,5.53
2024-02-02T03:14:46.457Z,5.48
2024-02-02T03:17:14.445Z,5.49
2024-02-02T03:19:42.622Z,5.50
2024-02-02T03:22:10.872Z,5.49
2024-02-02T03:24:39.012Z,5.50
2024-02-02T03:27:07.745Z,5.50
2024-02-02T03:29:35.738Z,5.49
2024-02-02T03:32:04.782Z,5.48
2024-02-02T03:34:32.928Z,5.48
2024-02-02T03:37:02.265Z,5.47
2024-02-02T03:39:30.494Z,5.46
2024-02-02T03:41:58.849Z,5.46
2024-02-02T03:44:27.086Z,5.44
2024-02-02T03:46:55.128Z,5.44
2024-02-02T03:49:23.194Z,5.44
2024-02-02T03:51:51.291Z,5.43
2024-02-02T03:54:19.332Z,5.41
2024-02-02T03:56:47.444Z,5.40
2024-02-02T03:59:15.745Z,5.38
2024-02-02T04:01:43.891Z,5.36
2024-02-02T04:04:12.185Z,5.37
2024-02-02T04:06:40.235Z,5.35
2024-02-02T04:09:09.912Z,5.34
2024-02-02T04:11:38.496Z,5.32
2024-02-02T04:14:09.467Z,5.32
2024-02-02T04:16:37.522Z,5.30
2024-02-02T04:19:05.707Z,5.28
2024-02-02T04:21:34.052Z,5.26
2024-02-02T04:24:02.224Z,5.22
2024-02-02T04:26:30.281Z,5.21
2024-02-02T04:28:58.226Z,5.21
2024-02-02T04:31:26.265Z,5.20
2024-02-02T04:33:54.484Z,5.20
2024-02-02T04:36:22.497Z,5.19
2024-02-02T04:38:50.605Z,5.21
2024-02-02T04:41:18.569Z,5.21
2024-02-02T04:43:46.565Z,5.23
2024-02-02T04:46:14.684Z,5.24
2024-02-02T04:48:42.914Z,5.26
2024-02-02T04:51:11.062Z,5.29
2024-02-02T04:53:39.208Z,5.30
2024-02-02T04:56:07.291Z,5.31
2024-02-02T04:58:35.294Z,5.32
2024-02-02T05:01:03.410Z,5.31
2024-02-02T05:03:33.607Z,5.30
2024-02-02T05:06:01.878Z,5.29
2024-02-02T05:08:30.078Z,5.28
2024-02-02T05:10:58.041Z,5.29
2024-02-02T05:13:26.502Z,5.29
2024-02-02T05:15:54.709Z,5.26
2024-02-02T05:18:22.973Z,5.23
2024-02-02T05:20:51.386Z,5.23
2024-02-02T05:23:19.513Z,5.23
2024-02-02T05:25:47.552Z,5.24
2024-02-02T05:28:15.662Z,5.23
2024-02-02T05:30:44.167Z,5.23
2024-02-02T05:33:12.468Z,5.26
2024-02-02T05:35:40.741Z,5.26
2024-02-02T05:38:08.987Z,5.27
2024-02-02T05:40:37.221Z,5.28
2024-02-02T05:43:06.163Z,5.26
2024-02-02T05:45:34.214Z,5.25
2024-02-02T05:48:02.503Z,5.25
2024-02-02T05:50:30.792Z,5.25
2024-02-02T05:52:58.787Z,5.23
2024-02-02T05:55:26.909Z,5.23
2024-02-02T05:57:55.178Z,5.23
2024-02-02T06:00:23.366Z,5.21
2024-02-02T06:02:51.475Z,5.17
2024-02-02T06:05:19.518Z,5.16
2024-02-02T06:07:47.917Z,5.14
2024-02-02T06:10:16.252Z,5.12
2024-02-02T06:12:44.554Z,5.08
2024-02-02T06:15:12.990Z,5.05
2024-02-02T06:17:41.201Z,5.00
2024-02-02T06:20:10.201Z,4.96
2024-02-02T06:22:38.244Z,4.92
2024-02-02T06:25:06.614Z,4.88
2024-02-02T06:27:34.842Z,4.81
2024-02-02T06:30:05.045Z,4.77
2024-02-02T06:32:33.525Z,4.73
2024-02-02T06:35:02.010Z,4.69
2024-02-02T06:37:30.557Z,4.67
2024-02-02T06:39:59.204Z,4.66
2024-02-02T06:42:27.866Z,4.64
2024-02-02T06:44:58.902Z,4.62
2024-02-02T06:47:27.401Z,4.60
2024-02-02T06:49:55.830Z,4.58
2024-02-02T06:52:24.097Z,4.55
2024-02-02T06:54:52.386Z,4.53
2024-02-02T06:57:21.025Z,4.51
2024-02-02T06:59:50.675Z,4.48
2024-02-02T07:02:21.516Z,4.46
2024-02-02T07:04:49.940Z,4.44
2024-02-02T07:07:18.842Z,4.43
2024-02-02T07:09:57.697Z,4.43
2024-02-02T07:12:46.941Z,4.45
2024-02-02T07:15:19.718Z,4.45
2024-02-02T07:17:48.547Z,4.47
2024-02-02T07:20:33.598Z,4.52
2024-02-02T07:23:05.241Z,4.56
2024-02-02T07:25:38.545Z,4.60
2024-02-02T07:28:35.852Z,4.63
2024-02-02T07:31:05.421Z,4.65
2024-02-02T07:33:45.072Z,4.70
2024-02-02T07:36:33.123Z,4.75
2024-02-02T07:39:02.340Z,4.79
2024-02-02T07:41:31.265Z,4.86
2024-02-02T07:44:01.420Z,4.94
2024-02-02T07:46:30.187Z,4.98
2024-02-02T07:48:58.673Z,5.02
2024-02-02T07:51:28.281Z,5.05
2024-02-02T07:53:56.655Z,5.05
2024-02-02T07:56:25.989Z,5.04
2024-02-02T07:58:54.677Z,5.04
2024-02-02T08:01:22.762Z,5.03
2024-02-02T08:03:51.047Z,5.03
2024-02-02T08:06:19.423Z,5.02
2024-02-02T08:08:47.619Z,5.01
2024-02-02T08:11:15.714Z,5.03
2024-02-02T08:13:44.394Z,5.04
2024-02-02T08:16:12.547Z,5.07
2024-02-02T08:18:40.969Z,5.09
2024-02-02T08:21:11.453Z,5.12
2024-02-02T08:23:39.758Z,5.13
2024-02-02T08:26:07.888Z,5.15
2024-02-02T08:28:45.359Z,5.15
2024-02-02T08:31:19.572Z,5.14
2024-02-02T08:33:47.753Z,5.13
2024-02-02T08:36:16.343Z,5.14
2024-02-02T08:38:44.479Z,5.16
2024-02-02T08:41:13.058Z,5.20
2024-02-02T08:43:43.236Z,5.21
2024-02-02T08:46:14.528Z,5.22
2024-02-02T08:48:53.530Z,5.23
2024-02-02T08:51:24.975Z,5.22
2024-02-02T08:54:17.622Z,5.26
2024-02-02T08:57:25.426Z,5.28
2024-02-02T08:59:54.937Z,5.24
2024-02-02T09:02:43.103Z,5.29
2024-02-02T09:05:19.734Z,5.31
2024-02-02T09:07:53.458Z,5.31
2024-02-02T09:10:47.300Z,5.33
2024-02-02T09:13:24.554Z,5.35
2024-02-02T09:15:53.227Z,5.41
2024-02-02T09:18:40.966Z,5.45
2024-02-02T09:21:10.309Z,5.48
2024-02-02T09:23:40.629Z,5.53
2024-02-02T09:26:12.620Z,5.57
2024-02-02T09:28:43.251Z,5.60
2024-02-02T09:31:39.012Z,5.63
2024-02-02T09:34:10.660Z,5.63
2024-02-02T09:36:41.295Z,5.66
2024-02-02T09:39:42.648Z,5.69
2024-02-02T09:42:32.178Z,5.68
2024-02-02T09:45:17.597Z,5.72
2024-02-02T09:47:53.781Z,5.76
2024-02-02T09:50:44.884Z,5.78
2024-02-02T09:53:26.080Z,5.60
2024-02-02T09:56:02.595Z,5.64
2024-02-02T09:58:52.588Z,5.70
2024-02-02T10:01:38.871Z,5.76
2024-02-02T10:04:40.189Z,5.82
2024-02-02T10:07:33.030Z,5.88
2024-02-02T10:10:04.011Z,5.95
2024-02-02T10:12:51.133Z,6.03
2024-02-02T10:16:05.403Z,6.06
2024-02-02T10:19:03.530Z,6.04
2024-02-02T10:21:49.248Z,6.09
2024-02-02T10:24:46.504Z,6.16
2024-02-02T10:27:37.510Z,6.21
2024-02-02T10:30:14.720Z,6.27
2024-02-02T10:33:10.178Z,6.35
2024-02-02T10:36:05.724Z,6.41
2024-02-02T10:38:36.846Z,6.43
2024-02-02T10:41:30.996Z,6.48
2024-02-02T10:44:13.879Z,6.54
2024-02-02T10:47:05.468Z,6.59
2024-02-02T10:50:03.693Z,6.66
2024-02-02T10:53:00.366Z,6.69
2024-02-02T10:55:39.430Z,6.72
2024-02-02T10:58:35.079Z,6.76
2024-02-02T11:01:15.360Z,6.77
2024-02-02T11:04:16.279Z,6.80
2024-02-02T11:06:51.721Z,6.83
2024-02-02T11:09:41.060Z,6.87
2024-02-02T11:12:17.889Z,6.87
2024-02-02T11:14:56.105Z,6.89
2024-02-02T11:17:35.043Z,6.91
2024-02-02T11:20:18.370Z,6.91
2024-02-02T11:22:49.388Z,6.91
2024-02-02T11:25:31.019Z,6.92
2024-02-02T11:28:03.513Z,6.90
2024-02-02T11:30:48.151Z,6.91
2024-02-02T11:33:57.756Z,6.91
2024-02-02T11:36:55.694Z,6.88
2024-02-02T11:39:32.502Z,6.88
2024-02-02T11:42:07.990Z,6.89
2024-02-02T11:44:37.850Z,6.90
2024-02-02T11:47:06.682Z,6.92
2024-02-02T11:49:39.800Z,6.94
2024-02-02T11:52:23.169Z,6.98
2024-02-02T11:55:09.049Z,7.00
2024-02-02T11:57:45.273Z,6.99
2024-02-02T12:00:24.890Z,7.03
2024-02-02T12:03:17.524Z,7.08
2024-02-02T12:06:22.352Z,7.07
2024-02-02T12:08:59.668Z,7.02
2024-02-02T12:11:43.719Z,7.05
2024-02-02T12:14:25.370Z,7.06
2024-02-02T12:16:53.676Z,7.06
2024-02-02T12:19:22.330Z,7.07
2024-02-02T12:21:50.718Z,7.06
2024-02-02T12:24:19.211Z,7.05
2024-02-02T12:26:49.583Z,7.07
2024-02-02T12:29:18.115Z,7.10
2024-02-02T12:31:46.387Z,7.12
2024-02-02T12:34:14.778Z,7.14
2024-02-02T12:36:43.010Z,7.15
2024-02-02T12:39:11.397Z,7.17
2024-02-02T12:41:39.466Z,7.18
2024-02-02T12:44:08.627Z,7.19
2024-02-02T12:46:47.075Z,7.21
2024-02-02T12:49:15.511Z,7.21
2024-02-02T12:51:45.083Z,7.23
2024-02-02T12:54:13.392Z,7.22
2024-02-02T12:56:41.537Z,7.21
2024-02-02T12:59:18.087Z,7.21
2024-02-02T13:01:47.090Z,7.19
2024-02-02T13:04:16.346Z,7.16
2024-02-02T13:06:46.522Z,7.13
2024-02-02T13:09:20.957Z,7.09
2024-02-02T13:11:49.577Z,7.05
2024-02-02T13:14:35.568Z,7.03
2024-02-02T13:17:10.539Z,7.00
2024-02-02T13:19:49.395Z,6.96
2024-02-02T13:22:20.769Z,6.89
2024-02-02T13:24:50.384Z,6.86
2024-02-02T13:27:20.356Z,6.85
2024-02-02T13:29:57.993Z,6.83
2024-02-02T13:32:28.688Z,6.79
2024-02-02T13:35:00.743Z,6.76
2024-02-02T13:37:37.938Z,6.73
2024-02-02T13:40:11.306Z,6.68
2024-02-02T13:42:43.638Z,6.64
2024-02-02T13:45:16.850Z,6.59
2024-02-02T13:47:54.473Z,6.57
2024-02-02T13:50:31.654Z,6.54
2024-02-02T13:53:00.102Z,6.52
2024-02-02T13:55:31.190Z,6.53
2024-02-02T13:57:59.240Z,6.52
2024-02-02T14:00:33.885Z,6.49
2024-02-02T14:03:09.586Z,6.47
2024-02-02T14:05:40.996Z,6.46
2024-02-02T14:08:09.361Z,6.47
2024-02-02T14:10:48.234Z,6.47
2024-02-02T14:13:23.177Z,6.44
2024-02-02T14:15:53.910Z,6.41
2024-02-02T14:18:22.476Z,6.35
2024-02-02T14:20:50.587Z,6.35
2024-02-02T14:23:18.912Z,6.34
2024-02-02T14:25:46.990Z,6.32
2024-02-02T14:28:15.592Z,6.33
2024-02-02T14:30:45.058Z,6.31
2024-02-02T14:33:22.112Z,6.29
2024-02-02T14:35:56.519Z,6.24
2024-02-02T14:38:24.642Z,6.22
2024-02-02T14:40:54.561Z,6.19
2024-02-02T14:43:22.840Z,6.19
2024-02-02T14:45:51.225Z,6.17
2024-02-02T14:48:20.774Z,6.14
2024-02-02T14:50:49.203Z,6.14
2024-02-02T14:53:17.190Z,6.13
2024-02-02T14:55:45.772Z,6.09
2024-02-02T14:58:14.811Z,6.07
2024-02-02T15:00:46.421Z,6.03
2024-02-02T15:03:14.942Z,6.03
2024-02-02T15:05:44.033Z,6.05
2024-02-02T15:08:13.411Z,6.07
2024-02-02T15:10:42.348Z,6.08
2024-02-02T15:13:11.832Z,6.04
2024-02-02T15:15:40.078Z,6.03
2024-02-02T15:18:08.664Z,6.03
2024-02-02T15:20:37.004Z,6.02
2024-02-02T15:23:05.478Z,6.03
2024-02-02T15:25:33.641Z,6.03
2024-02-02T15:28:02.011Z,5.98
2024-02-02T15:30:30.131Z,5.91
2024-02-02T15:32:58.420Z,5.88
2024-02-02T15:35:26.607Z,5.87
2024-02-02T15:37:55.071Z,5.84
2024-02-02T15:40:23.076Z,5.80
2024-02-02T15:42:52.094Z,5.76
2024-02-02T15:45:20.425Z,5.72
2024-02-02T15:47:51.792Z,5.70
2024-02-02T15:50:20.406Z,5.67
2024-02-02T15:52:49.072Z,5.67
2024-02-02T15:55:17.203Z,5.63
2024-02-02T15:57:52.089Z,5.62
2024-02-02T16:00:21.118Z,5.59
2024-02-02T16:02:49.634Z,5.57
2024-02-02T16:05:22.672Z,5.52
2024-02-02T16:07:50.873Z,5.51
2024-02-02T16:10:19.248Z,5.50
2024-02-02T16:12:47.505Z,5.49
2024-02-02T16:15:15.790Z,5.50
2024-02-02T16:17:43.989Z,5.48
2024-02-02T16:20:13.009Z,5.46
2024-02-02T16:22:45.101Z,5.45
2024-02-02T16:25:16.382Z,5.45
2024-02-02T16:27:44.564Z,5.43
2024-02-02T16:30:13.855Z,5.38
2024-02-02T16:32:42.041Z,5.37
2024-02-02T16:35:10.356Z,5.39
2024-02-02T16:37:40.052Z,5.38
2024-02-02T16:40:11.714Z,5.34
2024-02-02T16:42:44.249Z,5.34
2024-02-02T16:45:13.455Z,5.34
2024-02-02T16:47:41.561Z,5.34
2024-02-02T16:50:10.288Z,5.35
2024-02-02T16:52:38.412Z,5.37
2024-02-02T16:55:06.904Z,5.37
2024-02-02T16:57:35.678Z,5.38
2024-02-02T17:00:05.904Z,5.40
2024-02-02T17:02:36.268Z,5.40
2024-02-02T17:05:08.105Z,5.38
2024-02-02T17:07:36.507Z,5.36
2024-02-02T17:10:05.721Z,5.35
2024-02-02T17:12:33.709Z,5.31
2024-02-02T17:15:01.755Z,5.30
2024-02-02T17:17:30.037Z,5.27
2024-02-02T17:19:59.891Z,5.23
2024-02-02T17:22:28.178Z,5.24
2024-02-02T17:24:56.368Z,5.25
2024-02-02T17:27:25.041Z,5.25
2024-02-02T17:29:53.287Z,5.22
2024-02-02T17:32:21.464Z,5.23
2024-02-02T17:34:50.322Z,5.23
2024-02-02T17:37:18.456Z,5.23
2024-02-02T17:39:46.807Z,5.22
2024-02-02T17:42:15.259Z,5.21
2024-02-02T17:44:43.449Z,5.23
2024-02-02T17:47:11.667Z,5.25
2024-02-02T17:49:45.670Z,5.30
2024-02-02T17:52:17.600Z,5.33
2024-02-02T17:54:46.171Z,5.36
2024-02-02T17:57:14.404Z,5.38
2024-02-02T17:59:42.615Z,5.40
2024-02-02T18:02:11.418Z,5.40
2024-02-02T18:04:39.767Z,5.42
2024-02-02T18:07:09.788Z,5.43
2024-02-02T18:09:43.009Z,5.46
2024-02-02T18:12:14.954Z,5.43
2024-02-02T18:14:43.108Z,5.38
2024-02-02T18:17:15.571Z,5.36
2024-02-02T18:19:44.500Z,5.37
2024-02-02T18:22:12.668Z,5.39
2024-02-02T18:24:40.923Z,5.40
2024-02-02T18:27:09.177Z,5.40
2024-02-02T18:29:37.743Z,5.41
2024-02-02T18:32:05.933Z,5.41
2024-02-02T18:34:35.449Z,5.43
2024-02-02T18:37:03.656Z,5.45
2024-02-02T18:39:31.757Z,5.44
2024-02-02T18:42:05.444Z,5.43
2024-02-02T18:44:34.302Z,5.42
2024-02-02T18:47:03.150Z,5.45
2024-02-02T18:49:31.714Z,5.50
2024-02-02T18:51:59.957Z,5.53
2024-02-02T18:54:28.093Z,5.50
2024-02-02T18:56:56.410Z,5.51
2024-02-02T18:59:24.334Z,5.53
2024-02-02T19:01:52.697Z,5.54
2024-02-02T19:04:20.819Z,5.57
2024-02-02T19:06:48.943Z,5.61
2024-02-02T19:09:17.866Z,5.62
2024-02-02T19:11:47.187Z,5.63
2024-02-02T19:14:15.470Z,5.64
2024-02-02T19:16:43.634Z,5.64
2024-02-02T19:19:11.918Z,5.60
2024-02-02T19:21:41.259Z,5.59
2024-02-02T19:24:09.541Z,5.58
2024-02-02T19:26:37.685Z,5.59
2024-02-02T19:29:06.033Z,5.61
2024-02-02T19:31:36.649Z,5.63
2024-02-02T19:34:04.908Z,5.63
2024-02-02T19:36:33.138Z,5.62
2024-02-02T19:39:01.809Z,5.61
2024-02-02T19:41:31.992Z,5.61
2024-02-02T19:44:00.442Z,5.59
2024-02-02T19:46:30.571Z,5.55
2024-02-02T19:49:00.663Z,5.55
2024-02-02T19:51:29.807Z,5.53
2024-02-02T19:53:58.033Z,5.55
2024-02-02T19:56:26.144Z,5.55
2024-02-02T19:58:54.203Z,5.58
2024-02-02T20:01:23.130Z,5.60
2024-02-02T20:03:51.906Z,5.61
2024-02-02T20:06:21.131Z,5.62
2024-02-02T20:08:50.317Z,5.65
2024-02-02T20:11:20.464Z,5.68
2024-02-02T20:13:49.224Z,5.71
2024-02-02T20:16:19.361Z,5.73
2024-02-02T20:18:48.688Z,5.74
2024-02-02T20:21:19.066Z,5.77
2024-02-02T20:23:49.685Z,5.79
2024-02-02T20:26:21.371Z,5.78
2024-02-02T20:28:51.172Z,5.84
2024-02-02T20:31:19.816Z,5.88
2024-02-02T20:33:52.490Z,5.91
2024-02-02T20:36:23.885Z,5.89
2024-02-02T20:38:53.088Z,5.89
2024-02-02T20:41:26.653Z,5.91
2024-02-02T20:43:55.594Z,5.91
2024-02-02T20:46:23.962Z,5.91
2024-02-02T20:48:52.325Z,5.95
2024-02-02T20:51:20.743Z,5.99
2024-02-02T20:53:48.879Z,6.02
2024-02-02T20:56:16.941Z,6.03
2024-02-02T20:58:45.058Z,6.06
2024-02-02T21:01:13.240Z,6.07
2024-02-02T21:03:41.527Z,6.09
2024-02-02T21:06:09.772Z,6.11
2024-02-02T21:08:38.946Z,6.15
2024-02-02T21:11:07.495Z,6.17
2024-02-02T21:13:35.684Z,6.19
2024-02-02T21:16:05.188Z,6.23
2024-02-02T21:18:33.916Z,6.27
2024-02-02T21:21:02.285Z,6.31
2024-02-02T21:23:30.953Z,6.33
2024-02-02T21:25:59.047Z,6.36
2024-02-02T21:28:27.082Z,6.38
2024-02-02T21:30:59.197Z,6.38
2024-02-02T21:33:28.447Z,6.39
2024-02-02T21:35:58.344Z,6.40
2024-02-02T21:38:27.864Z,6.42
2024-02-02T21:40:56.042Z,6.45
2024-02-02T21:43:24.065Z,6.47
2024-02-02T21:45:52.267Z,6.50
2024-02-02T21:48:20.558Z,6.53
2024-02-02T21:50:49.088Z,6.56
2024-02-02T21:53:17.820Z,6.58
2024-02-02T21:55:48.866Z,6.58
2024-02-02T21:58:17.090Z,6.56
2024-02-02T22:00:45.224Z,6.58
2024-02-02T22:03:13.372Z,6.59
2024-02-02T22:05:41.731Z,6.60
2024-02-02T22:08:11.872Z,6.62
2024-02-02T22:10:39.916Z,6.64
2024-02-02T22:13:08.122Z,6.66
2024-02-02T22:15:36.567Z,6.69
2024-02-02T22:18:05.559Z,6.71
2024-02-02T22:20:33.660Z,6.75
2024-02-02T22:23:01.730Z,6.78
2024-02-02T22:25:29.815Z,6.80
2024-02-02T22:30:28.513Z,6.86
2024-02-02T22:32:58.270Z,6.90
2024-02-02T22:35:26.693Z,6.92
2024-02-02T22:37:54.834Z,6.96
2024-02-02T22:40:23.040Z,7.01
2024-02-02T22:42:51.147Z,7.05
2024-02-02T22:45:19.192Z,7.11
2024-02-02T22:47:47.334Z,7.13
2024-02-02T22:50:15.660Z,7.17
2024-02-02T22:52:44.834Z,7.20
2024-02-02T22:55:12.926Z,7.23
2024-02-02T22:57:41.659Z,7.25
2024-02-02T23:00:19.566Z,7.27
2024-02-02T23:02:48.005Z,7.28
2024-02-02T23:05:16.348Z,7.29
2024-02-02T23:07:44.514Z,7.31
2024-02-02T23:10:12.905Z,7.34
2024-02-02T23:12:40.929Z,7.37
2024-02-02T23:15:09.383Z,7.40
2024-02-02T23:17:38.052Z,7.42
2024-02-02T23:20:07.816Z,7.43
2024-02-02T23:22:36.243Z,7.44
2024-02-02T23:25:04.598Z,7.48
2024-02-02T23:27:34.016Z,7.52
2024-02-02T23:30:05.321Z,7.56
2024-02-02T23:32:33.368Z,7.60
2024-02-02T23:35:01.556Z,7.64
2024-02-02T23:37:30.363Z,7.66
2024-02-02T23:39:58.448Z,7.70
2024-02-02T23:42:26.837Z,7.74
2024-02-02T23:44:54.994Z,7.79
2024-02-02T23:47:23.283Z,7.83
2024-02-02T23:49:51.359Z,7.89
2024-02-02T23:52:19.716Z,7.94
2024-02-02T23:54:48.068Z,7.98
2024-02-02T23:57:22.070Z,8.01
2024-02-02T23:59:50.283Z,8.03
